sensor_id;sensor_type;location;lat;lon;timestamp;pressure;altitude;pressure_sealevel;temperature;humidity
52577;BME280;38469;53.562;10.048;2023-07-31T00:01:40;100699.69;;;16.20;100.00
52577;BME280;38469;53.562;10.048;2023-07-31T00:04:08;100714.22;;;16.34;100.00
52577;BME280;38469;53.562;10.048;2023-07-31T00:06:35;100717.06;;;16.46;100.00
52577;BME280;38469;53.562;10.048;2023-07-31T00:09:01;100711.50;;;16.46;100.00
52577;BME280;38469;53.562;10.048;2023-07-31T00:11:28;100713.78;;;16.44;100.00
52577;BME280;38469;53.562;10.048;2023-07-31T00:13:54;100702.94;;;16.51;100.00
52577;BME280;38469;53.562;10.048;2023-07-31T00:16:21;100698.34;;;16.55;100.00
52577;BME280;38469;53.562;10.048;2023-07-31T00:18:47;100705.59;;;16.48;100.00
52577;BME280;38469;53.562;10.048;2023-07-31T00:21:15;100694.75;;;16.46;100.00
52577;BME280;38469;53.562;10.048;2023-07-31T00:23:41;100705.09;;;16.46;100.00
52577;BME280;38469;53.562;10.048;2023-07-31T00:26:08;100699.97;;;16.56;100.00
52577;BME280;38469;53.562;10.048;2023-07-31T00:28:34;100696.69;;;16.75;100.00
52577;BME280;38469;53.562;10.048;2023-07-31T00:31:01;100686.78;;;16.65;100.00
52577;BME280;38469;53.562;10.048;2023-07-31T00:33:29;100689.34;;;16.50;100.00
52577;BME280;38469;53.562;10.048;2023-07-31T00:35:56;100692.19;;;16.41;100.00
52577;BME280;38469;53.562;10.048;2023-07-31T00:38:23;100688.97;;;16.60;100.00
52577;BME280;38469;53.562;10.048;2023-07-31T00:40:50;100688.88;;;16.68;100.00
52577;BME280;38469;53.562;10.048;2023-07-31T00:43:16;100675.34;;;16.58;100.00
52577;BME280;38469;53.562;10.048;2023-07-31T00:45:44;100685.38;;;16.71;100.00
52577;BME280;38469;53.562;10.048;2023-07-31T00:48:10;100686.50;;;16.58;100.00
52577;BME280;38469;53.562;10.048;2023-07-31T00:50:37;100675.63;;;16.65;100.00
52577;BME280;38469;53.562;10.048;2023-07-31T00:53:04;100681.34;;;16.48;100.00
52577;BME280;38469;53.562;10.048;2023-07-31T00:55:32;100671.03;;;16.40;100.00
52577;BME280;38469;53.562;10.048;2023-07-31T00:57:59;100680.69;;;16.43;100.00
52577;BME280;38469;53.562;10.048;2023-07-31T01:00:25;100680.25;;;16.61;100.00
52577;BME280;38469;53.562;10.048;2023-07-31T01:02:52;100667.06;;;16.50;100.00
52577;BME280;38469;53.562;10.048;2023-07-31T01:05:23;100665.94;;;16.42;100.00
52577;BME280;38469;53.562;10.048;2023-07-31T01:07:54;100671.84;;;16.41;100.00
52577;BME280;38469;53.562;10.048;2023-07-31T01:10:24;100661.59;;;16.32;100.00
52577;BME280;38469;53.562;10.048;2023-07-31T01:12:56;100659.56;;;16.42;100.00
52577;BME280;38469;53.562;10.048;2023-07-31T01:15:23;100659.56;;;16.42;100.00
52577;BME280;38469;53.562;10.048;2023-07-31T01:17:49;100655.00;;;16.37;100.00
52577;BME280;38469;53.562;10.048;2023-07-31T01:20:20;100650.38;;;16.20;100.00
52577;BME280;38469;53.562;10.048;2023-07-31T01:22:58;100645.97;;;16.19;100.00
52577;BME280;38469;53.562;10.048;2023-07-31T01:25:56;100647.03;;;16.06;100.00
52577;BME280;38469;53.562;10.048;2023-07-31T01:28:29;100643.63;;;16.01;100.00
52577;BME280;38469;53.562;10.048;2023-07-31T01:30:59;100641.84;;;15.96;100.00
52577;BME280;38469;53.562;10.048;2023-07-31T01:33:27;100634.09;;;16.02;100.00
52577;BME280;38469;53.562;10.048;2023-07-31T01:35:53;100639.69;;;16.02;100.00
52577;BME280;38469;53.562;10.048;2023-07-31T01:38:20;100637.13;;;16.17;100.00
52577;BME280;38469;53.562;10.048;2023-07-31T01:40:51;100631.41;;;16.14;100.00
52577;BME280;38469;53.562;10.048;2023-07-31T01:43:19;100622.69;;;15.95;100.00
52577;BME280;38469;53.562;10.048;2023-07-31T01:45:46;100624.19;;;15.92;100.00
52577;BME280;38469;53.562;10.048;2023-07-31T01:48:12;100622.22;;;15.93;100.00
52577;BME280;38469;53.562;10.048;2023-07-31T01:50:39;100621.78;;;15.82;100.00
52577;BME280;38469;53.562;10.048;2023-07-31T01:53:05;100622.91;;;15.90;100.00
52577;BME280;38469;53.562;10.048;2023-07-31T01:55:32;100617.25;;;15.98;100.00
52577;BME280;38469;53.562;10.048;2023-07-31T01:57:58;100611.91;;;15.93;100.00
52577;BME280;38469;53.562;10.048;2023-07-31T02:00:26;100613.75;;;16.10;100.00
52577;BME280;38469;53.562;10.048;2023-07-31T02:02:52;100603.25;;;16.27;100.00
52577;BME280;38469;53.562;10.048;2023-07-31T02:05:19;100612.44;;;16.28;100.00
52577;BME280;38469;53.562;10.048;2023-07-31T02:07:45;100600.41;;;16.36;100.00
52577;BME280;38469;53.562;10.048;2023-07-31T02:10:12;100601.16;;;16.45;100.00
52577;BME280;38469;53.562;10.048;2023-07-31T02:12:38;100603.28;;;16.48;100.00
52577;BME280;38469;53.562;10.048;2023-07-31T02:15:05;100598.63;;;16.31;100.00
52577;BME280;38469;53.562;10.048;2023-07-31T02:17:33;100601.31;;;16.28;100.00
52577;BME280;38469;53.562;10.048;2023-07-31T02:20:00;100604.81;;;16.37;100.00
52577;BME280;38469;53.562;10.048;2023-07-31T02:22:26;100590.50;;;16.47;100.00
52577;BME280;38469;53.562;10.048;2023-07-31T02:24:53;100598.38;;;16.45;100.00
52577;BME280;38469;53.562;10.048;2023-07-31T02:27:19;100596.25;;;16.42;100.00
52577;BME280;38469;53.562;10.048;2023-07-31T02:29:49;100592.78;;;16.45;100.00
52577;BME280;38469;53.562;10.048;2023-07-31T02:32:15;100599.75;;;16.60;100.00
52577;BME280;38469;53.562;10.048;2023-07-31T02:34:43;100582.78;;;16.44;100.00
52577;BME280;38469;53.562;10.048;2023-07-31T02:37:10;100579.38;;;16.47;100.00
52577;BME280;38469;53.562;10.048;2023-07-31T02:39:36;100587.72;;;16.47;100.00
52577;BME280;38469;53.562;10.048;2023-07-31T02:42:04;100579.63;;;16.54;100.00
52577;BME280;38469;53.562;10.048;2023-07-31T02:44:30;100581.66;;;16.45;100.00
52577;BME280;38469;53.562;10.048;2023-07-31T02:46:57;100579.75;;;16.37;100.00
52577;BME280;38469;53.562;10.048;2023-07-31T02:49:23;100575.47;;;16.40;100.00
52577;BME280;38469;53.562;10.048;2023-07-31T02:51:51;100569.97;;;16.64;100.00
52577;BME280;38469;53.562;10.048;2023-07-31T02:54:17;100536.25;;;16.24;100.00
52577;BME280;38469;53.562;10.048;2023-07-31T02:56:45;100572.94;;;16.47;100.00
52577;BME280;38469;53.562;10.048;2023-07-31T02:59:12;100563.75;;;16.46;100.00
52577;BME280;38469;53.562;10.048;2023-07-31T03:01:38;100570.66;;;16.49;100.00
52577;BME280;38469;53.562;10.048;2023-07-31T03:04:05;100573.63;;;16.44;100.00
52577;BME280;38469;53.562;10.048;2023-07-31T03:06:31;100560.47;;;16.44;100.00
52577;BME280;38469;53.562;10.048;2023-07-31T03:08:59;100560.94;;;16.34;100.00
52577;BME280;38469;53.562;10.048;2023-07-31T03:11:26;100553.78;;;16.45;100.00
52577;BME280;38469;53.562;10.048;2023-07-31T03:13:52;100554.19;;;16.35;100.00
52577;BME280;38469;53.562;10.048;2023-07-31T03:16:19;100542.09;;;16.31;100.00
52577;BME280;38469;53.562;10.048;2023-07-31T03:18:45;100553.84;;;16.69;100.00
52577;BME280;38469;53.562;10.048;2023-07-31T03:21:12;100548.03;;;16.62;100.00
52577;BME280;38469;53.562;10.048;2023-07-31T03:23:38;100548.88;;;16.42;100.00
52577;BME280;38469;53.562;10.048;2023-07-31T03:26:07;100537.56;;;16.59;100.00
52577;BME280;38469;53.562;10.048;2023-07-31T03:28:34;100523.53;;;16.35;100.00
52577;BME280;38469;53.562;10.048;2023-07-31T03:31:00;100532.25;;;16.46;100.00
52577;BME280;38469;53.562;10.048;2023-07-31T03:33:27;100534.88;;;16.51;100.00
52577;BME280;38469;53.562;10.048;2023-07-31T03:35:54;100524.66;;;16.55;100.00
52577;BME280;38469;53.562;10.048;2023-07-31T03:38:20;100536.09;;;16.41;100.00
52577;BME280;38469;53.562;10.048;2023-07-31T03:40:47;100542.03;;;16.40;100.00
52577;BME280;38469;53.562;10.048;2023-07-31T03:43:15;100537.22;;;16.61;100.00
52577;BME280;38469;53.562;10.048;2023-07-31T03:45:41;100533.63;;;16.60;100.00
52577;BME280;38469;53.562;10.048;2023-07-31T03:48:08;100529.44;;;16.54;100.00
52577;BME280;38469;53.562;10.048;2023-07-31T03:50:34;100534.31;;;16.57;100.00
52577;BME280;38469;53.562;10.048;2023-07-31T03:53:01;100534.69;;;16.68;100.00
52577;BME280;38469;53.562;10.048;2023-07-31T03:55:27;100542.44;;;16.62;100.00
52577;BME280;38469;53.562;10.048;2023-07-31T03:57:54;100539.31;;;16.64;100.00
52577;BME280;38469;53.562;10.048;2023-07-31T04:00:21;100536.84;;;16.50;100.00
52577;BME280;38469;53.562;10.048;2023-07-31T04:02:48;100534.56;;;16.64;100.00
52577;BME280;38469;53.562;10.048;2023-07-31T04:05:14;100533.44;;;16.77;100.00
52577;BME280;38469;53.562;10.048;2023-07-31T04:07:41;100538.78;;;16.70;100.00
52577;BME280;38469;53.562;10.048;2023-07-31T04:10:08;100535.94;;;16.58;100.00
52577;BME280;38469;53.562;10.048;2023-07-31T04:12:34;100538.53;;;16.63;100.00
52577;BME280;38469;53.562;10.048;2023-07-31T04:15:01;100529.22;;;16.71;100.00
52577;BME280;38469;53.562;10.048;2023-07-31T04:17:29;100519.97;;;16.47;100.00
52577;BME280;38469;53.562;10.048;2023-07-31T04:19:55;100522.69;;;16.55;100.00
52577;BME280;38469;53.562;10.048;2023-07-31T04:22:22;100526.91;;;16.73;100.00
52577;BME280;38469;53.562;10.048;2023-07-31T04:24:48;100520.97;;;16.63;100.00
52577;BME280;38469;53.562;10.048;2023-07-31T04:27:14;100531.06;;;16.55;100.00
52577;BME280;38469;53.562;10.048;2023-07-31T04:29:41;100524.53;;;16.51;100.00
52577;BME280;38469;53.562;10.048;2023-07-31T04:32:09;100525.16;;;16.36;100.00
52577;BME280;38469;53.562;10.048;2023-07-31T04:34:37;100522.38;;;16.36;100.00
52577;BME280;38469;53.562;10.048;2023-07-31T04:37:03;100514.63;;;16.42;100.00
52577;BME280;38469;53.562;10.048;2023-07-31T04:39:30;100511.75;;;16.50;100.00
52577;BME280;38469;53.562;10.048;2023-07-31T04:41:56;100517.53;;;16.45;100.00
52577;BME280;38469;53.562;10.048;2023-07-31T04:44:23;100517.88;;;16.44;100.00
52577;BME280;38469;53.562;10.048;2023-07-31T04:46:49;100511.47;;;16.43;100.00
52577;BME280;38469;53.562;10.048;2023-07-31T04:49:16;100513.91;;;16.45;100.00
52577;BME280;38469;53.562;10.048;2023-07-31T04:51:43;100506.72;;;16.44;100.00
52577;BME280;38469;53.562;10.048;2023-07-31T04:54:10;100503.88;;;16.52;100.00
52577;BME280;38469;53.562;10.048;2023-07-31T04:56:37;100504.00;;;16.35;100.00
52577;BME280;38469;53.562;10.048;2023-07-31T04:59:04;100504.97;;;16.39;100.00
52577;BME280;38469;53.562;10.048;2023-07-31T05:01:30;100505.91;;;16.43;100.00
52577;BME280;38469;53.562;10.048;2023-07-31T05:03:57;100514.34;;;16.34;100.00
52577;BME280;38469;53.562;10.048;2023-07-31T05:06:23;100509.97;;;16.46;100.00
52577;BME280;38469;53.562;10.048;2023-07-31T05:08:51;100511.47;;;16.43;100.00
52577;BME280;38469;53.562;10.048;2023-07-31T05:11:18;100508.63;;;16.31;100.00
52577;BME280;38469;53.562;10.048;2023-07-31T05:13:44;100511.31;;;16.27;100.00
52577;BME280;38469;53.562;10.048;2023-07-31T05:16:11;100514.06;;;16.48;100.00
52577;BME280;38469;53.562;10.048;2023-07-31T05:18:37;100520.06;;;16.38;100.00
52577;BME280;38469;53.562;10.048;2023-07-31T05:21:03;100509.09;;;16.21;100.00
52577;BME280;38469;53.562;10.048;2023-07-31T05:23:30;100518.59;;;16.20;100.00
52577;BME280;38469;53.562;10.048;2023-07-31T05:26:03;100512.47;;;16.47;100.00
52577;BME280;38469;53.562;10.048;2023-07-31T05:28:30;100504.13;;;16.59;100.00
52577;BME280;38469;53.562;10.048;2023-07-31T05:30:59;100509.13;;;16.66;100.00
52577;BME280;38469;53.562;10.048;2023-07-31T05:33:25;100511.53;;;16.55;100.00
52577;BME280;38469;53.562;10.048;2023-07-31T05:35:51;100504.88;;;16.48;100.00
52577;BME280;38469;53.562;10.048;2023-07-31T05:38:18;100511.13;;;16.45;100.00
52577;BME280;38469;53.562;10.048;2023-07-31T05:40:44;100504.25;;;16.42;100.00
52577;BME280;38469;53.562;10.048;2023-07-31T05:43:12;100508.22;;;16.41;100.00
52577;BME280;38469;53.562;10.048;2023-07-31T05:45:39;100509.69;;;16.47;100.00
52577;BME280;38469;53.562;10.048;2023-07-31T05:48:06;100499.84;;;16.29;100.00
52577;BME280;38469;53.562;10.048;2023-07-31T05:50:32;100504.25;;;16.30;100.00
52577;BME280;38469;53.562;10.048;2023-07-31T05:52:59;100497.91;;;16.42;100.00
52577;BME280;38469;53.562;10.048;2023-07-31T05:55:26;100504.75;;;16.44;100.00
52577;BME280;38469;53.562;10.048;2023-07-31T05:57:53;100493.56;;;16.32;100.00
52577;BME280;38469;53.562;10.048;2023-07-31T06:00:21;100485.47;;;16.06;100.00
52577;BME280;38469;53.562;10.048;2023-07-31T06:02:48;100484.16;;;16.36;100.00
52577;BME280;38469;53.562;10.048;2023-07-31T06:05:14;100483.19;;;16.53;100.00
52577;BME280;38469;53.562;10.048;2023-07-31T06:07:41;100469.59;;;16.52;100.00
52577;BME280;38469;53.562;10.048;2023-07-31T06:10:07;100484.84;;;16.54;100.00
52577;BME280;38469;53.562;10.048;2023-07-31T06:12:34;100479.50;;;16.73;100.00
52577;BME280;38469;53.562;10.048;2023-07-31T06:15:02;100479.94;;;16.51;100.00
52577;BME280;38469;53.562;10.048;2023-07-31T06:17:30;100486.56;;;16.59;100.00
52577;BME280;38469;53.562;10.048;2023-07-31T06:19:57;100477.59;;;16.53;100.00
52577;BME280;38469;53.562;10.048;2023-07-31T06:22:23;100488.09;;;16.68;100.00
52577;BME280;38469;53.562;10.048;2023-07-31T06:24:49;100474.63;;;16.82;100.00
52577;BME280;38469;53.562;10.048;2023-07-31T06:27:16;100475.34;;;16.79;100.00
52577;BME280;38469;53.562;10.048;2023-07-31T06:29:42;100477.41;;;16.82;100.00
52577;BME280;38469;53.562;10.048;2023-07-31T06:32:09;100480.31;;;16.86;100.00
52577;BME280;38469;53.562;10.048;2023-07-31T06:34:37;100471.38;;;16.80;100.00
52577;BME280;38469;53.562;10.048;2023-07-31T06:37:04;100478.59;;;16.81;100.00
52577;BME280;38469;53.562;10.048;2023-07-31T06:39:30;100478.34;;;16.74;100.00
52577;BME280;38469;53.562;10.048;2023-07-31T06:41:57;100478.56;;;16.57;100.00
52577;BME280;38469;53.562;10.048;2023-07-31T06:44:23;100477.59;;;16.53;100.00
52577;BME280;38469;53.562;10.048;2023-07-31T06:46:50;100479.28;;;16.90;100.00
52577;BME280;38469;53.562;10.048;2023-07-31T06:49:17;100471.25;;;16.77;100.00
52577;BME280;38469;53.562;10.048;2023-07-31T06:51:45;100453.59;;;16.73;100.00
52577;BME280;38469;53.562;10.048;2023-07-31T06:54:11;100469.06;;;16.82;100.00
52577;BME280;38469;53.562;10.048;2023-07-31T06:56:37;100476.97;;;16.92;100.00
52577;BME280;38469;53.562;10.048;2023-07-31T06:59:04;100479.06;;;16.95;100.00
52577;BME280;38469;53.562;10.048;2023-07-31T07:01:30;100478.59;;;17.05;100.00
52577;BME280;38469;53.562;10.048;2023-07-31T07:03:57;100474.88;;;17.13;100.00
52577;BME280;38469;53.562;10.048;2023-07-31T07:06:23;100475.34;;;17.03;100.00
52577;BME280;38469;53.562;10.048;2023-07-31T07:08:51;100464.88;;;17.00;100.00
52577;BME280;38469;53.562;10.048;2023-07-31T07:11:18;100478.13;;;17.15;100.00
52577;BME280;38469;53.562;10.048;2023-07-31T07:13:44;100471.38;;;17.04;100.00
52577;BME280;38469;53.562;10.048;2023-07-31T07:16:11;100480.22;;;17.06;100.00
52577;BME280;38469;53.562;10.048;2023-07-31T07:18:37;100479.75;;;17.16;100.00
52577;BME280;38469;53.562;10.048;2023-07-31T07:21:04;100479.28;;;17.02;100.00
52577;BME280;38469;53.562;10.048;2023-07-31T07:23:30;100469.66;;;17.00;100.00
52577;BME280;38469;53.562;10.048;2023-07-31T07:25:58;100478.34;;;16.86;100.00
52577;BME280;38469;53.562;10.048;2023-07-31T07:28:24;100476.50;;;16.90;100.00
52577;BME280;38469;53.562;10.048;2023-07-31T07:30:51;100473.59;;;16.99;100.00
52577;BME280;38469;53.562;10.048;2023-07-31T07:33:18;100466.25;;;17.18;100.00
52577;BME280;38469;53.562;10.048;2023-07-31T07:35:45;100472.78;;;17.22;100.00
52577;BME280;38469;53.562;10.048;2023-07-31T07:38:13;100464.63;;;17.17;100.00
52577;BME280;38469;53.562;10.048;2023-07-31T07:40:40;100467.66;;;17.24;100.00
52577;BME280;38469;53.562;10.048;2023-07-31T07:43:08;100440.56;;;17.13;100.00
52577;BME280;38469;53.562;10.048;2023-07-31T07:45:34;100468.81;;;17.35;100.00
52577;BME280;38469;53.562;10.048;2023-07-31T07:48:01;100477.41;;;17.18;100.00
52577;BME280;38469;53.562;10.048;2023-07-31T07:50:27;100465.78;;;17.28;100.00
52577;BME280;38469;53.562;10.048;2023-07-31T07:52:54;100465.56;;;17.21;100.00
52577;BME280;38469;53.562;10.048;2023-07-31T07:55:20;100467.66;;;17.49;100.00
52577;BME280;38469;53.562;10.048;2023-07-31T07:57:47;100462.97;;;17.65;100.00
52577;BME280;38469;53.562;10.048;2023-07-31T08:00:16;100463.53;;;17.58;100.00
52577;BME280;38469;53.562;10.048;2023-07-31T08:02:43;100460.00;;;17.73;100.00
52577;BME280;38469;53.562;10.048;2023-07-31T08:05:10;100450.44;;;17.86;100.00
52577;BME280;38469;53.562;10.048;2023-07-31T08:07:36;100447.81;;;18.21;100.00
52577;BME280;38469;53.562;10.048;2023-07-31T08:10:03;100441.78;;;18.19;100.00
52577;BME280;38469;53.562;10.048;2023-07-31T08:12:30;100435.06;;;18.08;100.00
52577;BME280;38469;53.562;10.048;2023-07-31T08:14:56;100436.91;;;18.16;100.00
52577;BME280;38469;53.562;10.048;2023-07-31T08:17:24;100440.16;;;18.18;100.00
52577;BME280;38469;53.562;10.048;2023-07-31T08:19:50;100441.41;;;18.48;100.00
52577;BME280;38469;53.562;10.048;2023-07-31T08:22:17;100441.41;;;18.48;100.00
52577;BME280;38469;53.562;10.048;2023-07-31T08:24:43;100430.84;;;18.42;100.00
52577;BME280;38469;53.562;10.048;2023-07-31T08:27:10;100425.47;;;18.21;100.00
52577;BME280;38469;53.562;10.048;2023-07-31T08:29:36;100394.00;;;17.81;100.00
52577;BME280;38469;53.562;10.048;2023-07-31T08:32:03;100410.13;;;18.15;100.00
52577;BME280;38469;53.562;10.048;2023-07-31T08:34:31;100407.16;;;18.39;100.00
52577;BME280;38469;53.562;10.048;2023-07-31T08:36:57;100405.78;;;18.76;100.00
52577;BME280;38469;53.562;10.048;2023-07-31T08:39:24;100400.91;;;18.58;100.00
52577;BME280;38469;53.562;10.048;2023-07-31T08:41:50;100400.50;;;18.75;100.00
52577;BME280;38469;53.562;10.048;2023-07-31T08:44:17;100394.75;;;18.83;100.00
52577;BME280;38469;53.562;10.048;2023-07-31T08:46:44;100393.69;;;18.72;100.00
52577;BME280;38469;53.562;10.048;2023-07-31T08:49:12;100404.22;;;18.94;100.00
52577;BME280;38469;53.562;10.048;2023-07-31T08:51:41;100394.25;;;19.12;100.00
52577;BME280;38469;53.562;10.048;2023-07-31T08:54:08;100394.50;;;19.07;100.00
52577;BME280;38469;53.562;10.048;2023-07-31T08:56:35;100390.34;;;19.17;100.00
52577;BME280;38469;53.562;10.048;2023-07-31T08:59:03;100398.09;;;18.89;100.00
52577;BME280;38469;53.562;10.048;2023-07-31T09:01:33;100395.91;;;18.98;100.00
52577;BME280;38469;53.562;10.048;2023-07-31T09:04:01;100395.09;;;19.16;100.00
52577;BME280;38469;53.562;10.048;2023-07-31T09:06:30;100391.00;;;19.10;100.00
52577;BME280;38469;53.562;10.048;2023-07-31T09:08:58;100388.13;;;18.91;100.00
52577;BME280;38469;53.562;10.048;2023-07-31T09:11:25;100385.53;;;18.83;100.00
52577;BME280;38469;53.562;10.048;2023-07-31T09:13:52;100386.84;;;19.04;100.00
52577;BME280;38469;53.562;10.048;2023-07-31T09:16:27;100391.53;;;19.00;100.00
52577;BME280;38469;53.562;10.048;2023-07-31T09:18:56;100382.63;;;19.29;100.00
52577;BME280;38469;53.562;10.048;2023-07-31T09:21:24;100397.06;;;19.47;100.00
52577;BME280;38469;53.562;10.048;2023-07-31T09:23:51;100382.69;;;18.98;100.00
52577;BME280;38469;53.562;10.048;2023-07-31T09:26:31;100385.16;;;18.84;100.00
52577;BME280;38469;53.562;10.048;2023-07-31T09:28:58;100386.34;;;18.83;100.00
52577;BME280;38469;53.562;10.048;2023-07-31T09:31:38;100367.03;;;18.78;100.00
52577;BME280;38469;53.562;10.048;2023-07-31T09:34:05;100368.09;;;19.24;100.00
52577;BME280;38469;53.562;10.048;2023-07-31T09:36:32;100367.13;;;19.16;100.00
52577;BME280;38469;53.562;10.048;2023-07-31T09:39:01;100341.91;;;18.97;100.00
52577;BME280;38469;53.562;10.048;2023-07-31T09:41:30;100360.78;;;19.54;100.00
52577;BME280;38469;53.562;10.048;2023-07-31T09:43:57;100348.34;;;19.33;100.00
52577;BME280;38469;53.562;10.048;2023-07-31T09:46:27;100353.69;;;19.60;100.00
52577;BME280;38469;53.562;10.048;2023-07-31T09:49:03;100342.84;;;19.78;100.00
52577;BME280;38469;53.562;10.048;2023-07-31T09:51:30;100337.84;;;19.68;100.00
52577;BME280;38469;53.562;10.048;2023-07-31T09:53:57;100336.09;;;19.60;100.00
52577;BME280;38469;53.562;10.048;2023-07-31T09:56:23;100333.38;;;19.86;100.00
52577;BME280;38469;53.562;10.048;2023-07-31T09:58:53;100336.28;;;20.12;100.00
52577;BME280;38469;53.562;10.048;2023-07-31T10:01:20;100330.38;;;19.94;100.00
52577;BME280;38469;53.562;10.048;2023-07-31T10:03:47;100330.34;;;19.53;100.00
52577;BME280;38469;53.562;10.048;2023-07-31T10:06:14;100326.41;;;19.76;100.00
52577;BME280;38469;53.562;10.048;2023-07-31T10:08:46;100325.22;;;19.77;100.00
52577;BME280;38469;53.562;10.048;2023-07-31T10:11:14;100324.47;;;19.80;100.00
52577;BME280;38469;53.562;10.048;2023-07-31T10:13:42;100327.78;;;19.86;100.00
52577;BME280;38469;53.562;10.048;2023-07-31T10:16:10;100329.47;;;19.90;100.00
52577;BME280;38469;53.562;10.048;2023-07-31T10:18:38;100333.13;;;19.72;100.00
52577;BME280;38469;53.562;10.048;2023-07-31T10:21:06;100328.97;;;19.85;100.00
52577;BME280;38469;53.562;10.048;2023-07-31T10:23:33;100323.19;;;19.55;100.00
52577;BME280;38469;53.562;10.048;2023-07-31T10:26:01;100330.19;;;19.46;100.00
52577;BME280;38469;53.562;10.048;2023-07-31T10:28:29;100323.84;;;19.49;100.00
52577;BME280;38469;53.562;10.048;2023-07-31T10:30:55;100318.09;;;19.61;100.00
52577;BME280;38469;53.562;10.048;2023-07-31T10:33:24;100318.28;;;19.90;100.00
52577;BME280;38469;53.562;10.048;2023-07-31T10:38:33;100311.16;;;19.55;100.00
52577;BME280;38469;53.562;10.048;2023-07-31T10:41:08;100314.19;;;19.46;100.00
52577;BME280;38469;53.562;10.048;2023-07-31T10:43:36;100305.13;;;19.53;100.00
52577;BME280;38469;53.562;10.048;2023-07-31T10:46:06;100293.44;;;19.47;100.00
52577;BME280;38469;53.562;10.048;2023-07-31T10:48:35;100298.59;;;19.45;100.00
52577;BME280;38469;53.562;10.048;2023-07-31T10:51:06;100310.75;;;19.33;100.00
52577;BME280;38469;53.562;10.048;2023-07-31T10:53:33;100307.50;;;19.31;100.00
52577;BME280;38469;53.562;10.048;2023-07-31T10:56:00;100309.13;;;19.33;100.00
52577;BME280;38469;53.562;10.048;2023-07-31T10:58:27;100307.03;;;19.10;100.00
52577;BME280;38469;53.562;10.048;2023-07-31T11:00:55;100301.81;;;18.74;100.00
52577;BME280;38469;53.562;10.048;2023-07-31T11:03:25;100298.94;;;18.90;100.00
52577;BME280;38469;53.562;10.048;2023-07-31T11:06:00;100295.66;;;19.03;100.00
52577;BME280;38469;53.562;10.048;2023-07-31T11:08:29;100292.34;;;18.98;100.00
52577;BME280;38469;53.562;10.048;2023-07-31T11:11:05;100290.81;;;19.19;100.00
52577;BME280;38469;53.562;10.048;2023-07-31T11:13:33;100281.56;;;18.81;100.00
52577;BME280;38469;53.562;10.048;2023-07-31T11:16:00;100294.03;;;19.02;100.00
52577;BME280;38469;53.562;10.048;2023-07-31T11:18:27;100243.50;;;18.76;100.00
52577;BME280;38469;53.562;10.048;2023-07-31T11:20:55;100277.34;;;19.25;100.00
52577;BME280;38469;53.562;10.048;2023-07-31T11:23:22;100259.31;;;19.42;100.00
52577;BME280;38469;53.562;10.048;2023-07-31T11:25:49;100279.56;;;19.77;100.00
52577;BME280;38469;53.562;10.048;2023-07-31T11:28:17;100276.31;;;19.75;100.00
52577;BME280;38469;53.562;10.048;2023-07-31T11:30:45;100274.53;;;19.63;100.00
52577;BME280;38469;53.562;10.048;2023-07-31T11:33:13;100271.28;;;19.23;100.00
52577;BME280;38469;53.562;10.048;2023-07-31T11:35:42;100273.31;;;19.42;100.00
52577;BME280;38469;53.562;10.048;2023-07-31T11:38:11;100266.94;;;19.25;100.00
52577;BME280;38469;53.562;10.048;2023-07-31T11:40:41;100270.13;;;19.05;100.00
52577;BME280;38469;53.562;10.048;2023-07-31T11:43:08;100275.97;;;18.81;100.00
52577;BME280;38469;53.562;10.048;2023-07-31T11:45:35;100279.66;;;18.85;100.00
52577;BME280;38469;53.562;10.048;2023-07-31T11:48:01;100272.66;;;18.75;100.00
52577;BME280;38469;53.562;10.048;2023-07-31T11:50:28;100281.94;;;18.79;100.00
52577;BME280;38469;53.562;10.048;2023-07-31T11:52:57;100283.28;;;18.85;100.00
52577;BME280;38469;53.562;10.048;2023-07-31T11:55:27;100273.31;;;18.88;100.00
52577;BME280;38469;53.562;10.048;2023-07-31T11:57:57;100292.34;;;18.63;100.00
52577;BME280;38469;53.562;10.048;2023-07-31T12:00:24;100284.50;;;18.53;100.00
52577;BME280;38469;53.562;10.048;2023-07-31T12:02:51;100281.94;;;18.79;100.00
52577;BME280;38469;53.562;10.048;2023-07-31T12:05:19;100281.78;;;18.91;100.00
52577;BME280;38469;53.562;10.048;2023-07-31T12:07:47;100279.16;;;18.98;100.00
52577;BME280;38469;53.562;10.048;2023-07-31T12:10:29;100289.75;;;18.89;100.00
52577;BME280;38469;53.562;10.048;2023-07-31T12:12:57;100293.22;;;19.02;100.00
52577;BME280;38469;53.562;10.048;2023-07-31T12:15:35;100280.09;;;18.87;100.00
52577;BME280;38469;53.562;10.048;2023-07-31T12:18:07;100277.34;;;18.71;100.00
52577;BME280;38469;53.562;10.048;2023-07-31T12:20:34;100274.59;;;18.56;100.00
52577;BME280;38469;53.562;10.048;2023-07-31T12:23:01;100272.44;;;18.49;100.00
52577;BME280;38469;53.562;10.048;2023-07-31T12:25:33;100266.38;;;18.31;100.00
52577;BME280;38469;53.562;10.048;2023-07-31T12:28:05;100258.09;;;18.35;100.00
52577;BME280;38469;53.562;10.048;2023-07-31T12:30:33;100256.03;;;18.32;100.00
52577;BME280;38469;53.562;10.048;2023-07-31T12:33:03;100246.19;;;18.38;100.00
52577;BME280;38469;53.562;10.048;2023-07-31T12:35:35;100252.97;;;18.53;100.00